Time;durP1;ratioP1;P1;durP2;ratioP2;P2;SDS_P1;SDS_P2;PMS_P1;PMS_P2;Temp;Humidity;BMP_temperature;BMP_pressure;BME280_temperature;BME280_humidity;BME280_pressure;Samples;Min_cycle;Max_cycle;Signal;HPM_P1;HPM_P2
2023/09/22 00:02:54;;;;;;;10.48;5.80;;;;;;;;;;10489973;28;20677;-81
2023/09/22 00:07:55;;;;;;;7.90;6.18;;;;;;;;;;10489495;28;20040;-81
2023/09/22 00:12:56;;;;;;;10.13;5.82;;;;;;;;;;10490361;28;20031;-80
2023/09/22 00:17:57;;;;;;;9.43;6.47;;;;;;;;;;10488614;28;20037;-81
2023/09/22 00:22:58;;;;;;;9.70;6.18;;;;;;;;;;10489018;28;20743;-80
2023/09/22 00:27:59;;;;;;;9.20;5.90;;;;;;;;;;10488881;28;20032;-81
2023/09/22 00:33:00;;;;;;;10.05;5.88;;;;;;;;;;10487478;28;20024;-81
2023/09/22 00:38:01;;;;;;;11.90;6.60;;;;;;;;;;10488708;28;20020;-81
2023/09/22 00:43:06;;;;;;;8.38;5.70;;;;;;;;;;10488124;28;20423;-80
2023/09/22 00:48:08;;;;;;;13.97;6.43;;;;;;;;;;10482744;28;20392;-81
2023/09/22 00:53:09;;;;;;;11.95;6.18;;;;;;;;;;10487974;28;20036;-81
2023/09/22 00:58:11;;;;;;;9.68;6.10;;;;;;;;;;10487190;28;20039;-81
2023/09/22 01:03:12;;;;;;;12.57;6.70;;;;;;;;;;10487394;28;20057;-81
2023/09/22 01:08:13;;;;;;;10.15;5.78;;;;;;;;;;10487669;28;20044;-81
2023/09/22 01:13:14;;;;;;;9.13;6.13;;;;;;;;;;10486511;28;20036;-81
2023/09/22 01:18:15;;;;;;;8.45;5.65;;;;;;;;;;10485821;28;20032;-81
2023/09/22 01:23:16;;;;;;;7.72;5.20;;;;;;;;;;10486709;28;20028;-81
2023/09/22 01:28:17;;;;;;;10.65;5.57;;;;;;;;;;10485693;28;20045;-80
2023/09/22 01:33:20;;;;;;;11.52;6.22;;;;;;;;;;10481758;28;20048;-81
2023/09/22 01:38:26;;;;;;;12.45;6.15;;;;;;;;;;10483907;28;20094;-81
2023/09/22 01:43:28;;;;;;;11.50;6.18;;;;;;;;;;10485187;28;20040;-81
2023/09/22 01:48:29;;;;;;;10.43;5.70;;;;;;;;;;10484673;28;20047;-82
2023/09/22 01:53:30;;;;;;;8.27;5.70;;;;;;;;;;10485053;28;20093;-81
2023/09/22 01:58:31;;;;;;;9.93;6.47;;;;;;;;;;10486122;28;20009;-80
2023/09/22 02:03:32;;;;;;;9.98;6.32;;;;;;;;;;10484936;28;20458;-81
2023/09/22 02:08:33;;;;;;;11.73;6.68;;;;;;;;;;10485191;28;20032;-81
2023/09/22 02:13:34;;;;;;;11.63;7.05;;;;;;;;;;10484670;28;20051;-82
2023/09/22 02:18:35;;;;;;;12.80;7.55;;;;;;;;;;10483857;28;20052;-81
2023/09/22 02:23:37;;;;;;;9.25;6.10;;;;;;;;;;10485428;28;20525;-81
2023/09/22 02:28:38;;;;;;;12.07;7.88;;;;;;;;;;10484111;28;20519;-81
2023/09/22 02:33:39;;;;;;;8.75;6.35;;;;;;;;;;10483004;28;20085;-81
2023/09/22 02:38:40;;;;;;;11.27;7.03;;;;;;;;;;10483964;28;20047;-81
2023/09/22 02:43:41;;;;;;;11.20;7.03;;;;;;;;;;10484251;28;20117;-81
2023/09/22 02:48:42;;;;;;;12.57;7.53;;;;;;;;;;10484295;28;20040;-80
2023/09/22 02:53:45;;;;;;;12.55;6.93;;;;;;;;;;10484777;28;20043;-81
2023/09/22 02:58:46;;;;;;;11.80;6.28;;;;;;;;;;10483008;28;20082;-81
2023/09/22 03:03:47;;;;;;;11.10;6.82;;;;;;;;;;10483453;28;20090;-81
2023/09/22 03:08:48;;;;;;;10.80;7.57;;;;;;;;;;10483836;28;20521;-80
2023/09/22 03:13:49;;;;;;;11.75;7.38;;;;;;;;;;10483895;28;20093;-80
2023/09/22 03:18:50;;;;;;;10.65;7.25;;;;;;;;;;10479437;28;20048;-80
2023/09/22 03:23:51;;;;;;;11.10;6.65;;;;;;;;;;10481222;28;20024;-81
2023/09/22 03:28:52;;;;;;;10.20;6.05;;;;;;;;;;10490712;28;20052;-82
2023/09/22 03:33:53;;;;;;;10.00;6.45;;;;;;;;;;10489417;28;20040;-81
2023/09/22 03:38:54;;;;;;;12.38;7.30;;;;;;;;;;10491210;28;20506;-80
2023/09/22 03:43:56;;;;;;;15.75;7.85;;;;;;;;;;10489985;28;20029;-80
2023/09/22 03:48:57;;;;;;;17.23;8.32;;;;;;;;;;10491259;28;20033;-83
2023/09/22 03:53:58;;;;;;;14.73;8.68;;;;;;;;;;10491081;28;20364;-83
2023/09/22 03:58:59;;;;;;;11.02;7.75;;;;;;;;;;10471476;28;20028;-84
2023/09/22 04:04:00;;;;;;;12.55;7.93;;;;;;;;;;10488356;28;20041;-83
2023/09/22 04:09:07;;;;;;;12.30;7.00;;;;;;;;;;10489874;28;20032;-82
2023/09/22 04:14:09;;;;;;;11.95;7.97;;;;;;;;;;10490155;28;20103;-85
2023/09/22 04:19:10;;;;;;;13.32;8.40;;;;;;;;;;10488189;28;20024;-83
2023/09/22 04:24:11;;;;;;;17.83;8.40;;;;;;;;;;10489331;28;20642;-82
2023/09/22 04:29:12;;;;;;;12.38;8.25;;;;;;;;;;10487740;28;20063;-81
2023/09/22 04:34:14;;;;;;;12.43;8.07;;;;;;;;;;10486007;28;20644;-82
2023/09/22 04:39:15;;;;;;;13.10;9.25;;;;;;;;;;10487093;28;20030;-81
2023/09/22 04:44:16;;;;;;;15.45;9.60;;;;;;;;;;10488636;28;20111;-82
2023/09/22 04:49:17;;;;;;;14.95;8.10;;;;;;;;;;10499673;28;20033;-81
2023/09/22 04:54:18;;;;;;;14.68;8.88;;;;;;;;;;10488908;28;20385;-82
2023/09/22 04:59:19;;;;;;;13.05;8.50;;;;;;;;;;10470330;28;20035;-82
2023/09/22 05:04:23;;;;;;;16.27;9.27;;;;;;;;;;10472190;28;20047;-82
2023/09/22 05:09:24;;;;;;;15.70;8.43;;;;;;;;;;10486636;28;20070;-86
2023/09/22 05:14:26;;;;;;;16.05;9.20;;;;;;;;;;10488748;28;20044;-82
2023/09/22 05:19:27;;;;;;;17.08;8.73;;;;;;;;;;10487543;28;20403;-82
2023/09/22 05:24:29;;;;;;;14.45;9.73;;;;;;;;;;10487266;28;20056;-83
2023/09/22 05:29:30;;;;;;;23.10;10.55;;;;;;;;;;10491531;28;20067;-82
2023/09/22 05:34:31;;;;;;;20.98;10.20;;;;;;;;;;10479249;28;20032;-81
2023/09/22 05:39:31;;;;;;;20.02;9.63;;;;;;;;;;10484533;28;20035;-83
2023/09/22 05:44:33;;;;;;;17.30;9.48;;;;;;;;;;10484953;28;20079;-84
2023/09/22 05:49:34;;;;;;;16.33;8.85;;;;;;;;;;10484154;28;20082;-80
2023/09/22 05:54:35;;;;;;;16.38;8.48;;;;;;;;;;10484446;28;20028;-85
2023/09/22 05:59:37;;;;;;;20.38;9.52;;;;;;;;;;10484959;28;20024;-84
2023/09/22 06:04:38;;;;;;;12.93;8.38;;;;;;;;;;10466118;28;20040;-86
2023/09/22 06:09:39;;;;;;;21.52;9.43;;;;;;;;;;10474581;28;20140;-83
2023/09/22 06:14:40;;;;;;;13.10;8.15;;;;;;;;;;10484073;28;20036;-82
2023/09/22 06:19:41;;;;;;;21.20;9.35;;;;;;;;;;10482678;28;20425;-82
2023/09/22 06:24:45;;;;;;;35.42;10.15;;;;;;;;;;10471961;28;20075;-83
2023/09/22 06:29:47;;;;;;;23.85;9.32;;;;;;;;;;10443095;28;20025;-84
2023/09/22 06:34:48;;;;;;;33.00;9.32;;;;;;;;;;10445244;28;20039;-84
2023/09/22 06:39:49;;;;;;;31.45;10.38;;;;;;;;;;10456478;28;20029;-83
2023/09/22 06:44:50;;;;;;;18.85;8.27;;;;;;;;;;10460322;28;20044;-83
2023/09/22 06:49:51;;;;;;;18.25;7.65;;;;;;;;;;10471017;28;20051;-84
2023/09/22 06:54:52;;;;;;;15.10;5.95;;;;;;;;;;10470009;28;20028;-84
2023/09/22 06:59:53;;;;;;;14.75;6.43;;;;;;;;;;10486237;28;20033;-84
2023/09/22 07:04:54;;;;;;;13.70;5.78;;;;;;;;;;10490116;28;20072;-84
2023/09/22 07:09:55;;;;;;;11.77;5.32;;;;;;;;;;10464932;28;20025;-85
2023/09/22 07:14:56;;;;;;;13.50;5.68;;;;;;;;;;10481043;28;20029;-83
2023/09/22 07:19:58;;;;;;;8.23;4.80;;;;;;;;;;10489923;28;20578;-84
2023/09/22 07:24:59;;;;;;;13.48;5.57;;;;;;;;;;10463396;28;20075;-84
2023/09/22 07:30:00;;;;;;;11.07;4.97;;;;;;;;;;10461160;28;20048;-84
2023/09/22 07:35:01;;;;;;;12.45;4.60;;;;;;;;;;10492320;28;20024;-84
2023/09/22 07:40:08;;;;;;;10.15;4.45;;;;;;;;;;10488748;28;20025;-81
2023/09/22 07:45:09;;;;;;;11.38;4.03;;;;;;;;;;10489672;28;20043;-82
2023/09/22 07:50:11;;;;;;;10.38;4.10;;;;;;;;;;10474665;28;20175;-84
2023/09/22 07:55:15;;;;;;;6.95;3.08;;;;;;;;;;10486114;28;20029;-82
2023/09/22 08:00:18;;;;;;;4.50;3.00;;;;;;;;;;10468791;28;20028;-84
2023/09/22 08:05:20;;;;;;;8.20;3.08;;;;;;;;;;10485731;28;20052;-81
2023/09/22 08:10:22;;;;;;;5.70;3.05;;;;;;;;;;10487534;28;20503;-82
2023/09/22 08:15:24;;;;;;;8.50;3.55;;;;;;;;;;10477904;28;20032;-84
2023/09/22 08:20:25;;;;;;;9.65;3.28;;;;;;;;;;10461693;28;20480;-83
2023/09/22 08:25:27;;;;;;;5.93;3.05;;;;;;;;;;10485071;28;20759;-83
2023/09/22 08:30:28;;;;;;;6.85;3.33;;;;;;;;;;10489725;28;20036;-85
2023/09/22 08:35:29;;;;;;;7.38;3.25;;;;;;;;;;10487601;28;20111;-83
2023/09/22 08:40:30;;;;;;;8.75;3.50;;;;;;;;;;10488697;28;20104;-82
2023/09/22 08:45:31;;;;;;;10.70;3.58;;;;;;;;;;10488010;28;20059;-83
2023/09/22 08:50:33;;;;;;;8.73;3.60;;;;;;;;;;10487182;28;20032;-82
2023/09/22 08:55:35;;;;;;;5.93;3.40;;;;;;;;;;10487680;28;20036;-82
2023/09/22 09:00:36;;;;;;;10.98;3.65;;;;;;;;;;10487713;28;20885;-82
2023/09/22 09:05:39;;;;;;;6.22;3.63;;;;;;;;;;10482528;28;20040;-83
2023/09/22 09:10:41;;;;;;;7.57;3.00;;;;;;;;;;10462364;28;20025;-83
2023/09/22 09:15:42;;;;;;;6.22;2.67;;;;;;;;;;10485578;28;20043;-83
2023/09/22 09:20:43;;;;;;;9.48;2.60;;;;;;;;;;10480005;28;20036;-83
2023/09/22 09:25:46;;;;;;;5.25;2.50;;;;;;;;;;10485180;28;20044;-83
2023/09/22 09:30:49;;;;;;;7.05;2.65;;;;;;;;;;10480325;28;20059;-82
2023/09/22 09:35:51;;;;;;;7.38;2.78;;;;;;;;;;10486319;28;20024;-82
2023/09/22 09:40:52;;;;;;;5.93;2.88;;;;;;;;;;10485891;28;20017;-83
2023/09/22 09:45:57;;;;;;;5.57;2.60;;;;;;;;;;10486109;28;20487;-82
2023/09/22 09:50:59;;;;;;;9.30;3.13;;;;;;;;;;10468957;28;20121;-83
2023/09/22 09:56:02;;;;;;;6.38;3.13;;;;;;;;;;10485030;28;20059;-84
2023/09/22 10:01:06;;;;;;;9.85;2.97;;;;;;;;;;10485100;28;20047;-83
2023/09/22 10:06:10;;;;;;;5.97;2.80;;;;;;;;;;10485064;28;20028;-83
2023/09/22 10:11:12;;;;;;;5.28;2.38;;;;;;;;;;10482702;28;20496;-84
2023/09/22 10:16:28;;;;;;;5.28;2.60;;;;;;;;;;10482846;28;20028;-83
2023/09/22 10:21:31;;;;;;;6.05;2.53;;;;;;;;;;10485549;28;20016;-83
2023/09/22 10:26:32;;;;;;;7.40;2.85;;;;;;;;;;10485672;28;20737;-83
2023/09/22 10:31:33;;;;;;;7.57;2.55;;;;;;;;;;10485761;28;20056;-82
2023/09/22 10:36:46;;;;;;;5.57;2.83;;;;;;;;;;10484459;28;20032;-83
2023/09/22 10:42:00;;;;;;;9.73;3.22;;;;;;;;;;10466260;28;20256;-83
2023/09/22 10:47:01;;;;;;;7.05;2.88;;;;;;;;;;10479315;28;20075;-83
2023/09/22 10:52:03;;;;;;;8.27;2.58;;;;;;;;;;10485121;28;20025;-84
2023/09/22 10:57:04;;;;;;;5.78;2.95;;;;;;;;;;10480666;28;20028;-81
2023/09/22 11:02:05;;;;;;;7.45;2.30;;;;;;;;;;10479150;28;20117;-83
2023/09/22 11:07:06;;;;;;;6.80;2.78;;;;;;;;;;10465865;28;20487;-85
2023/09/22 11:12:07;;;;;;;4.55;2.20;;;;;;;;;;10477263;28;20040;-83
2023/09/22 11:17:09;;;;;;;7.05;2.60;;;;;;;;;;10473592;28;20033;-83
2023/09/22 11:22:12;;;;;;;8.73;3.17;;;;;;;;;;10482573;28;20578;-83
2023/09/22 11:27:13;;;;;;;4.13;2.10;;;;;;;;;;10476987;28;20041;-83
2023/09/22 11:32:14;;;;;;;6.00;2.33;;;;;;;;;;10481571;28;20040;-84
2023/09/22 11:37:15;;;;;;;5.88;2.30;;;;;;;;;;10458409;28;20051;-85
2023/09/22 11:42:20;;;;;;;10.48;2.35;;;;;;;;;;10482963;28;20096;-83
2023/09/22 11:47:24;;;;;;;12.35;2.50;;;;;;;;;;10482955;28;20045;-83
2023/09/22 11:58:04;;;;;;;9.25;3.00;;;;;;;;;;10480848;28;20032;-82
2023/09/22 12:03:05;;;;;;;7.90;2.60;;;;;;;;;;10480470;28;20671;-82
2023/09/22 12:08:09;;;;;;;6.03;2.53;;;;;;;;;;10471407;28;20040;-83
2023/09/22 12:13:10;;;;;;;10.37;2.53;;;;;;;;;;10480948;28;20025;-84
2023/09/22 12:18:11;;;;;;;12.50;2.47;;;;;;;;;;10476466;28;20259;-83
2023/09/22 12:23:12;;;;;;;5.35;2.40;;;;;;;;;;10484485;28;20652;-82
2023/09/22 12:28:13;;;;;;;5.10;2.17;;;;;;;;;;10470556;28;20037;-83
2023/09/22 12:33:18;;;;;;;6.20;2.25;;;;;;;;;;10488115;28;20542;-84
2023/09/22 12:38:31;;;;;;;6.40;2.20;;;;;;;;;;10484109;28;20031;-85
2023/09/22 12:43:32;;;;;;;6.28;2.33;;;;;;;;;;10485388;28;20039;-78
2023/09/22 12:48:33;;;;;;;13.52;2.67;;;;;;;;;;10458625;28;20040;-80
2023/09/22 12:53:34;;;;;;;9.00;2.25;;;;;;;;;;10484536;28;20021;-81
2023/09/22 12:58:35;;;;;;;14.68;3.05;;;;;;;;;;10490617;28;20055;-85
2023/09/22 13:03:36;;;;;;;11.35;3.17;;;;;;;;;;10481369;28;20128;-82
2023/09/22 13:08:38;;;;;;;8.57;2.55;;;;;;;;;;10489316;28;20036;-81
2023/09/22 13:13:39;;;;;;;5.15;1.90;;;;;;;;;;10486710;28;20028;-84
2023/09/22 13:18:42;;;;;;;5.03;2.13;;;;;;;;;;10487868;28;20470;-83
2023/09/22 13:23:43;;;;;;;4.88;2.30;;;;;;;;;;10487983;28;20115;-83
2023/09/22 13:28:45;;;;;;;4.97;1.83;;;;;;;;;;10477259;28;20032;-82
2023/09/22 13:33:47;;;;;;;6.10;2.20;;;;;;;;;;10477018;28;20052;-79
2023/09/22 13:38:52;;;;;;;8.43;2.70;;;;;;;;;;10488007;28;20021;-84
2023/09/22 13:44:11;;;;;;;7.13;2.03;;;;;;;;;;10472476;28;20639;-83
2023/09/22 13:49:12;;;;;;;5.55;2.38;;;;;;;;;;10467889;28;20040;-86
2023/09/22 13:54:13;;;;;;;3.28;2.20;;;;;;;;;;10484328;28;20444;-83
2023/09/22 13:59:18;;;;;;;3.88;2.05;;;;;;;;;;10474657;28;20021;-83
2023/09/22 14:04:19;;;;;;;9.18;2.50;;;;;;;;;;10460859;28;20045;-85
2023/09/22 14:09:20;;;;;;;8.48;2.22;;;;;;;;;;10460716;28;20040;-84
2023/09/22 14:14:21;;;;;;;6.43;2.42;;;;;;;;;;10464650;28;20521;-84
2023/09/22 14:19:22;;;;;;;4.78;2.17;;;;;;;;;;10474603;28;20051;-82
2023/09/22 14:24:24;;;;;;;4.43;2.50;;;;;;;;;;10473030;28;20696;-83
2023/09/22 14:29:25;;;;;;;6.13;1.90;;;;;;;;;;10477472;28;20483;-85
2023/09/22 14:34:26;;;;;;;7.43;2.55;;;;;;;;;;10463145;28;20480;-83
2023/09/22 14:39:28;;;;;;;6.47;2.75;;;;;;;;;;10478524;28;20020;-84
2023/09/22 14:44:29;;;;;;;7.50;2.58;;;;;;;;;;10483560;28;20110;-84
2023/09/22 14:49:30;;;;;;;6.22;2.50;;;;;;;;;;10492453;28;20030;-85
2023/09/22 14:54:31;;;;;;;6.80;2.50;;;;;;;;;;10482617;28;20110;-83
2023/09/22 14:59:32;;;;;;;4.07;2.20;;;;;;;;;;10455685;28;20048;-79
2023/09/22 15:04:33;;;;;;;6.88;2.30;;;;;;;;;;10473431;28;20120;-85
2023/09/22 15:09:35;;;;;;;6.25;2.70;;;;;;;;;;10481985;28;20031;-82
2023/09/22 15:14:37;;;;;;;5.50;2.30;;;;;;;;;;10476158;28;20025;-86
2023/09/22 15:19:38;;;;;;;4.68;2.58;;;;;;;;;;10481918;28;20019;-82
2023/09/22 15:24:39;;;;;;;7.90;2.63;;;;;;;;;;10489556;28;20020;-84
2023/09/22 15:29:41;;;;;;;6.78;2.75;;;;;;;;;;10489755;28;20507;-85
2023/09/22 15:34:42;;;;;;;5.55;3.17;;;;;;;;;;10486239;28;20029;-82
2023/09/22 15:39:43;;;;;;;8.35;3.25;;;;;;;;;;10491320;28;20032;-84
2023/09/22 15:44:44;;;;;;;6.97;3.33;;;;;;;;;;10490121;28;20036;-82
2023/09/22 15:49:45;;;;;;;5.65;3.17;;;;;;;;;;10489039;28;20037;-84
2023/09/22 15:54:46;;;;;;;6.30;3.42;;;;;;;;;;10490548;28;20024;-83
2023/09/22 15:59:47;;;;;;;6.75;3.72;;;;;;;;;;10488238;28;20032;-82
2023/09/22 16:04:48;;;;;;;9.10;4.22;;;;;;;;;;10478329;28;20805;-84
2023/09/22 16:09:50;;;;;;;9.50;4.47;;;;;;;;;;10486325;28;20039;-81
2023/09/22 16:14:51;;;;;;;11.85;4.07;;;;;;;;;;10489193;28;20044;-84
2023/09/22 16:19:53;;;;;;;11.85;4.95;;;;;;;;;;10486516;28;20472;-83
2023/09/22 16:24:54;;;;;;;11.70;4.30;;;;;;;;;;10484777;28;20033;-83
2023/09/22 16:29:55;;;;;;;8.02;3.78;;;;;;;;;;10484780;28;20111;-84
2023/09/22 16:34:57;;;;;;;8.40;4.18;;;;;;;;;;10485279;28;20032;-83
2023/09/22 16:40:01;;;;;;;12.40;4.75;;;;;;;;;;10486542;28;20404;-83
2023/09/22 16:45:03;;;;;;;17.30;4.85;;;;;;;;;;10475245;28;20434;-83
2023/09/22 16:50:04;;;;;;;12.85;5.45;;;;;;;;;;10458957;28;20039;-85
2023/09/22 16:55:05;;;;;;;10.48;5.07;;;;;;;;;;10486303;28;20400;-82
2023/09/22 17:00:09;;;;;;;9.98;4.82;;;;;;;;;;10484650;28;20020;-83
2023/09/22 17:05:11;;;;;;;9.90;5.32;;;;;;;;;;10483681;28;20048;-84
2023/09/22 17:10:13;;;;;;;7.50;3.90;;;;;;;;;;10484798;28;20029;-82
2023/09/22 17:15:14;;;;;;;14.13;5.18;;;;;;;;;;10486395;28;20075;-85
2023/09/22 17:20:15;;;;;;;8.10;4.20;;;;;;;;;;10487232;28;20020;-83
2023/09/22 17:25:16;;;;;;;14.13;5.60;;;;;;;;;;10486847;28;20075;-83
2023/09/22 17:30:17;;;;;;;13.07;6.50;;;;;;;;;;10482765;28;20031;-84
2023/09/22 17:35:20;;;;;;;24.00;15.27;;;;;;;;;;10486290;28;20500;-84
2023/09/22 17:40:21;;;;;;;16.73;9.25;;;;;;;;;;10485232;28;20016;-81
2023/09/22 17:45:22;;;;;;;18.70;11.25;;;;;;;;;;10485062;28;20040;-84
2023/09/22 17:50:24;;;;;;;27.27;13.13;;;;;;;;;;10485427;28;20028;-86
2023/09/22 17:55:25;;;;;;;15.68;9.48;;;;;;;;;;10485131;28;20120;-83
2023/09/22 18:00:26;;;;;;;18.85;10.50;;;;;;;;;;10483550;28;20029;-84
2023/09/22 18:05:27;;;;;;;13.00;8.32;;;;;;;;;;10465018;28;20040;-84
2023/09/22 18:10:29;;;;;;;20.73;11.80;;;;;;;;;;10465648;28;20036;-83
2023/09/22 18:15:30;;;;;;;18.13;9.10;;;;;;;;;;10483626;28;20020;-84
2023/09/22 18:20:31;;;;;;;16.65;8.80;;;;;;;;;;10483285;28;20062;-86
2023/09/22 18:25:32;;;;;;;15.35;8.57;;;;;;;;;;10483392;28;20048;-87
2023/09/22 18:30:37;;;;;;;14.77;7.28;;;;;;;;;;10482878;28;20043;-84
2023/09/22 18:35:38;;;;;;;12.32;7.47;;;;;;;;;;10455737;28;20028;-84
2023/09/22 18:40:42;;;;;;;17.27;6.10;;;;;;;;;;10483309;28;20021;-83
2023/09/22 18:45:47;;;;;;;12.82;5.50;;;;;;;;;;10484078;28;20076;-85
2023/09/22 18:50:49;;;;;;;12.15;5.38;;;;;;;;;;10482479;28;20472;-85
2023/09/22 18:55:54;;;;;;;10.18;6.00;;;;;;;;;;10468547;28;20190;-85
2023/09/22 19:00:55;;;;;;;10.27;5.55;;;;;;;;;;10468897;28;20128;-84
2023/09/22 19:06:03;;;;;;;24.10;8.88;;;;;;;;;;10485670;28;20040;-82
2023/09/22 19:11:04;;;;;;;13.52;7.82;;;;;;;;;;10480850;28;20067;-90
2023/09/22 19:16:05;;;;;;;12.77;8.05;;;;;;;;;;10472568;28;20067;-84
2023/09/22 19:21:06;;;;;;;13.30;6.57;;;;;;;;;;10491269;28;20075;-87
2023/09/22 19:26:10;;;;;;;30.77;18.63;;;;;;;;;;10472961;28;20480;-88
2023/09/22 19:31:11;;;;;;;24.73;14.82;;;;;;;;;;10465259;28;20047;-87
2023/09/22 19:36:12;;;;;;;18.58;10.20;;;;;;;;;;10464727;28;20032;-86
2023/09/22 19:41:13;;;;;;;18.65;9.85;;;;;;;;;;10473257;28;20488;-87
2023/09/22 19:46:17;;;;;;;20.40;8.82;;;;;;;;;;10489571;28;20102;-88
2023/09/22 19:51:19;;;;;;;21.02;9.13;;;;;;;;;;10472316;28;20131;-87
2023/09/22 19:56:23;;;;;;;13.05;6.47;;;;;;;;;;10490592;28;20024;-87
2023/09/22 20:01:27;;;;;;;10.30;5.30;;;;;;;;;;10485710;28;20052;-87
2023/09/22 20:06:30;;;;;;;8.43;5.05;;;;;;;;;;10469769;28;20166;-86
2023/09/22 20:11:32;;;;;;;16.55;8.05;;;;;;;;;;10487457;28;20387;-87
2023/09/22 20:16:34;;;;;;;13.38;7.50;;;;;;;;;;10469862;28;20055;-87
2023/09/22 20:21:36;;;;;;;13.50;6.55;;;;;;;;;;10489012;28;20107;-86
2023/09/22 20:26:37;;;;;;;10.43;6.20;;;;;;;;;;10487636;28;20036;-85
2023/09/22 20:31:44;;;;;;;15.25;8.80;;;;;;;;;;10467405;28;20032;-88
2023/09/22 20:37:01;;;;;;;12.63;7.85;;;;;;;;;;10465813;28;20127;-84
2023/09/22 20:42:02;;;;;;;10.63;6.63;;;;;;;;;;10481896;28;20043;-86
2023/09/22 20:47:03;;;;;;;12.32;7.15;;;;;;;;;;10487851;28;20110;-85
2023/09/22 20:52:05;;;;;;;11.95;6.38;;;;;;;;;;10467828;28;20067;-87
2023/09/22 20:57:06;;;;;;;9.95;5.47;;;;;;;;;;10470603;28;20098;-85
2023/09/22 21:02:10;;;;;;;13.98;5.28;;;;;;;;;;10465129;28;20424;-85
2023/09/22 21:07:11;;;;;;;10.27;5.63;;;;;;;;;;10479108;28;20051;-85
2023/09/22 21:12:12;;;;;;;9.43;5.18;;;;;;;;;;10487008;28;20036;-85
2023/09/22 21:17:13;;;;;;;9.18;4.30;;;;;;;;;;10467932;28;20033;-85
2023/09/22 21:22:14;;;;;;;9.10;5.38;;;;;;;;;;10486260;28;20021;-85
2023/09/22 21:27:15;;;;;;;16.70;8.50;;;;;;;;;;10487260;28;20046;-87
2023/09/22 21:32:16;;;;;;;17.70;8.95;;;;;;;;;;10476872;28;20067;-87
2023/09/22 21:37:17;;;;;;;11.15;6.53;;;;;;;;;;10466670;28;20198;-85
2023/09/22 21:42:18;;;;;;;8.13;4.75;;;;;;;;;;10485425;28;20535;-85
2023/09/22 21:47:20;;;;;;;13.02;8.38;;;;;;;;;;10483740;28;20047;-86
2023/09/22 21:52:21;;;;;;;17.73;8.98;;;;;;;;;;10484780;28;20037;-83
2023/09/22 21:57:22;;;;;;;11.82;7.05;;;;;;;;;;10485595;28;20028;-87
2023/09/22 22:02:23;;;;;;;17.95;9.27;;;;;;;;;;10483878;28;20060;-85
2023/09/22 22:07:30;;;;;;;19.48;9.98;;;;;;;;;;10485714;28;20036;-84
2023/09/22 22:12:33;;;;;;;28.50;14.65;;;;;;;;;;10484766;28;20074;-87
2023/09/22 22:17:35;;;;;;;27.38;13.70;;;;;;;;;;10466909;28;20558;-85
2023/09/22 22:22:36;;;;;;;20.40;11.38;;;;;;;;;;10484574;28;20024;-84
2023/09/22 22:27:37;;;;;;;19.55;11.55;;;;;;;;;;10483861;28;20034;-85
2023/09/22 22:32:38;;;;;;;23.70;11.95;;;;;;;;;;10465255;28;20499;-86
2023/09/22 22:37:39;;;;;;;22.58;12.68;;;;;;;;;;10465852;28;20037;-83
2023/09/22 22:42:40;;;;;;;17.02;10.95;;;;;;;;;;10466064;28;20127;-85
2023/09/22 22:47:41;;;;;;;16.20;11.10;;;;;;;;;;10465514;28;20042;-83
2023/09/22 22:52:44;;;;;;;7.97;5.35;;;;;;;;;;10483430;28;20533;-84
2023/09/22 22:57:47;;;;;;;14.38;8.70;;;;;;;;;;10465727;28;20453;-83
2023/09/22 23:02:51;;;;;;;9.27;6.22;;;;;;;;;;10482763;28;20385;-84
2023/09/22 23:07:52;;;;;;;26.87;13.10;;;;;;;;;;10484048;28;20047;-84
2023/09/22 23:12:54;;;;;;;15.38;8.80;;;;;;;;;;10484016;28;20021;-83
2023/09/22 23:17:55;;;;;;;29.85;16.02;;;;;;;;;;10475354;28;20099;-84
2023/09/22 23:22:57;;;;;;;13.00;8.50;;;;;;;;;;10464920;28;20063;-84
2023/09/22 23:27:59;;;;;;;14.82;10.80;;;;;;;;;;10465296;28;20036;-84
2023/09/22 23:33:00;;;;;;;19.23;12.40;;;;;;;;;;10483185;28;20029;-83
2023/09/22 23:38:01;;;;;;;17.48;11.57;;;;;;;;;;10481080;28;20036;-83
2023/09/22 23:43:03;;;;;;;20.58;12.55;;;;;;;;;;10469941;28;20403;-84
2023/09/22 23:48:04;;;;;;;23.63;16.73;;;;;;;;;;10489304;28;20039;-84
2023/09/22 23:53:05;;;;;;;46.25;26.80;;;;;;;;;;10489777;28;20043;-84
2023/09/22 23:58:09;;;;;;;49.92;26.25;;;;;;;;;;10489840;28;20398;-83
